Aviation Digital Data Service (ADDS)

Output produced by METARs form (1900 UTC 22 September 2017)
found at http://www.aviationweather.gov/adds/metars/
 
METAR text: KAMW 221853Z AUTO 17015G23KT 10SM CLR 32/22 A2991 RMK AO2 SLP117 T03220222
Conditions at: KAMW (AMES , IA, US) observed 1853 UTC 22 September 2017
Temperature: 32.2°C (90°F)
Dewpoint: 22.2°C (72°F) [RH = 56%]
Pressure (altimeter): 29.91 inches Hg (1013.0 mb)
[Sea-level pressure: 1011.7 mb]
Winds: from the S (170 degrees) at 17 MPH (15 knots; 7.8 m/s)
gusting to 26 MPH (23 knots; 12.0 m/s)
Visibility: 10 or more miles (16+ km)
Ceiling: at least 12,000 feet AGL
Clouds: sky clear below 12,000 feet AGL
Weather: automated observation with no human augmentation;
there may or may not be significant weather present at this time